Time;durP1;ratioP1;P1;durP2;ratioP2;P2;SDS_P1;SDS_P2;PMS_P1;PMS_P2;Temp;Humidity;BMP_temperature;BMP_pressure;BME280_temperature;BME280_humidity;BME280_pressure;Samples;Min_cycle;Max_cycle;Signal;HPM_P1;HPM_P2
2022/10/04 00:02:03;;;;;;;;;;;;;;;10.88;100.00;98410.28;1721852;81;22014;-85
2022/10/04 00:04:34;;;;;;;;;;;;;;;10.85;100.00;98410.05;1724257;81;26817;-85
2022/10/04 00:07:02;;;;;;;;;;;;;;;10.85;100.00;98411.82;1721502;82;25237;-84
2022/10/04 00:09:33;;;;;;;;;;;;;;;10.84;100.00;98418.00;1721329;81;20193;-84
2022/10/04 00:12:03;;;;;;;;;;;;;;;10.83;100.00;98418.47;1721370;81;20267;-84
2022/10/04 00:14:30;;;;;;;;;;;;;;;10.81;100.00;98424.27;1723689;82;21993;-84
2022/10/04 00:16:58;;;;;;;;;;;;;;;10.77;100.00;98418.05;1719725;82;26199;-84
2022/10/04 00:19:26;;;;;;;;;;;;;;;10.73;100.00;98423.99;1721487;82;24587;-84
2022/10/04 00:21:56;;;;;;;;;;;;;;;10.68;100.00;98417.41;1716753;82;20528;-84
2022/10/04 00:24:24;;;;;;;;;;;;;;;10.66;100.00;98419.28;1723062;82;24741;-84
2022/10/04 00:26:56;;;;;;;;;;;;;;;10.64;100.00;98419.85;1724458;82;22104;-84
2022/10/04 00:29:24;;;;;;;;;;;;;;;10.61;100.00;98412.23;1724903;82;26608;-84
2022/10/04 00:32:10;;;;;;;;;;;;;;;10.60;100.00;98415.31;1720221;82;24517;-84
2022/10/04 00:34:50;;;;;;;;;;;;;;;10.60;100.00;98411.39;1720803;82;20215;-84
2022/10/04 00:37:17;;;;;;;;;;;;;;;10.63;100.00;98415.59;1718277;82;24806;-84
2022/10/04 00:39:45;;;;;;;;;;;;;;;10.66;100.00;98411.44;1721817;82;21498;-84
2022/10/04 00:42:18;;;;;;;;;;;;;;;10.66;100.00;98401.80;1718581;82;26262;-84
2022/10/04 00:44:52;;;;;;;;;;;;;;;10.69;100.00;98402.08;1719898;82;24656;-84
2022/10/04 00:47:20;;;;;;;;;;;;;;;10.72;100.00;98396.61;1719240;82;20214;-84
2022/10/04 00:49:47;;;;;;;;;;;;;;;10.75;100.00;98395.91;1723809;82;24660;-84
2022/10/04 00:52:16;;;;;;;;;;;;;;;10.76;100.00;98385.80;1716687;82;35184;-84
2022/10/04 00:54:46;;;;;;;;;;;;;;;10.78;100.00;98398.33;1715780;82;26863;-84
2022/10/04 00:57:14;;;;;;;;;;;;;;;10.78;100.00;98402.25;1717316;82;24404;-84
2022/10/04 00:59:42;;;;;;;;;;;;;;;10.78;100.00;98403.56;1718469;82;20229;-84
2022/10/04 01:02:15;;;;;;;;;;;;;;;10.79;100.00;98401.78;1727896;81;25556;-84
2022/10/04 01:04:55;;;;;;;;;;;;;;;10.80;100.00;98399.03;1724522;82;21971;-84
2022/10/04 01:07:38;;;;;;;;;;;;;;;10.80;100.00;98387.25;1729328;81;27046;-84
2022/10/04 01:10:09;;;;;;;;;;;;;;;10.83;100.00;98392.75;1723197;81;24369;-84
2022/10/04 01:12:37;;;;;;;;;;;;;;;10.83;100.00;98394.91;1724358;81;20241;-84
2022/10/04 01:15:23;;;;;;;;;;;;;;;10.78;100.00;98380.47;1729759;81;25279;-84
2022/10/04 01:18:09;;;;;;;;;;;;;;;10.75;100.00;98379.36;1724476;81;22139;-84
2022/10/04 01:20:52;;;;;;;;;;;;;;;10.73;100.00;98377.34;1729771;81;26885;-84
2022/10/04 01:23:37;;;;;;;;;;;;;;;10.72;100.00;98371.74;1720082;81;25244;-84
2022/10/04 01:26:05;;;;;;;;;;;;;;;10.70;100.00;98370.53;1729456;81;20153;-84
2022/10/04 01:28:32;;;;;;;;;;;;;;;10.71;100.00;98375.30;1717552;82;25040;-84
2022/10/04 01:30:59;;;;;;;;;;;;;;;10.71;100.00;98376.14;1725475;81;22032;-84
2022/10/04 01:33:24;;;;;;;;;;;;;;;10.74;100.00;98380.33;1726926;81;25939;-84
2022/10/04 01:35:51;;;;;;;;;;;;;;;10.74;100.00;98385.09;1723806;81;20248;-84
2022/10/04 01:38:17;;;;;;;;;;;;;;;10.75;100.00;98386.75;1724730;81;20168;-84
2022/10/04 01:40:48;;;;;;;;;;;;;;;10.78;100.00;98380.00;1731163;81;24731;-84
2022/10/04 01:43:19;;;;;;;;;;;;;;;10.83;100.00;98384.90;1725728;81;21906;-85
2022/10/04 01:45:49;;;;;;;;;;;;;;;10.88;100.00;98384.09;1730208;81;25667;-85
2022/10/04 01:48:20;;;;;;;;;;;;;;;10.94;100.00;98384.13;1727045;82;24229;-85
2022/10/04 01:50:50;;;;;;;;;;;;;;;10.94;100.00;98386.28;1721302;82;20244;-85
2022/10/04 01:53:20;;;;;;;;;;;;;;;10.90;100.00;98397.45;1727584;81;24909;-85
2022/10/04 01:55:48;;;;;;;;;;;;;;;10.83;100.00;98383.13;1726515;81;22172;-85
2022/10/04 01:58:25;;;;;;;;;;;;;;;10.78;100.00;98381.78;1733236;81;26017;-85
2022/10/04 02:00:53;;;;;;;;;;;;;;;10.78;100.00;98376.55;1725625;81;24708;-85
2022/10/04 02:03:25;;;;;;;;;;;;;;;10.81;100.00;98371.08;1702521;81;20222;-85
2022/10/04 02:05:53;;;;;;;;;;;;;;;10.81;100.00;98374.53;1725422;81;24739;-85
2022/10/04 02:08:21;;;;;;;;;;;;;;;10.80;100.00;98373.36;1735064;81;22081;-84
2022/10/04 02:10:49;;;;;;;;;;;;;;;10.77;100.00;98375.70;1729420;81;23655;-84
2022/10/04 02:13:20;;;;;;;;;;;;;;;10.77;100.00;98377.02;1734054;81;24406;-85
2022/10/04 02:15:47;;;;;;;;;;;;;;;10.79;100.00;98378.22;1728552;81;20254;-84
2022/10/04 02:18:16;;;;;;;;;;;;;;;10.80;100.00;98383.33;1731095;81;25723;-84
2022/10/04 02:20:42;;;;;;;;;;;;;;;10.85;100.00;98381.71;1729919;81;22095;-85
2022/10/04 02:23:10;;;;;;;;;;;;;;;10.88;100.00;98384.94;1735895;81;28092;-84
2022/10/04 02:25:37;;;;;;;;;;;;;;;10.91;100.00;98381.24;1726571;81;25126;-84
2022/10/04 02:28:04;;;;;;;;;;;;;;;10.96;100.00;98385.70;1733623;81;20235;-85
2022/10/04 02:30:41;;;;;;;;;;;;;;;11.00;100.00;98384.53;1725861;81;24823;-85
2022/10/04 02:33:09;;;;;;;;;;;;;;;11.04;100.00;98369.42;1731617;81;21984;-85
2022/10/04 02:35:45;;;;;;;;;;;;;;;11.04;100.00;98384.66;1732543;81;26042;-84
2022/10/04 02:38:22;;;;;;;;;;;;;;;11.02;100.00;98377.88;1728055;81;25038;-84
2022/10/04 02:41:06;;;;;;;;;;;;;;;10.98;100.00;98379.86;1727962;81;20245;-84
2022/10/04 02:43:37;;;;;;;;;;;;;;;10.96;100.00;98377.84;1728245;81;24769;-84
2022/10/04 02:46:06;;;;;;;;;;;;;;;10.94;100.00;98374.50;1727820;81;22570;-84
2022/10/04 02:48:33;;;;;;;;;;;;;;;10.91;100.00;98374.70;1727272;81;26025;-85
2022/10/04 02:51:01;;;;;;;;;;;;;;;10.90;100.00;98375.20;1733297;81;24506;-84
2022/10/04 02:53:34;;;;;;;;;;;;;;;10.92;100.00;98378.99;1730176;81;20317;-85
2022/10/04 02:56:01;;;;;;;;;;;;;;;10.93;100.00;98378.05;1728567;81;24804;-84
2022/10/04 02:58:29;;;;;;;;;;;;;;;10.97;100.00;98379.97;1732794;81;22051;-84
2022/10/04 03:00:58;;;;;;;;;;;;;;;10.98;100.00;98383.80;1728932;82;26961;-85
2022/10/04 03:03:25;;;;;;;;;;;;;;;10.96;100.00;98382.25;1716899;82;24436;-84
2022/10/04 03:05:54;;;;;;;;;;;;;;;10.95;100.00;98382.72;1716536;82;20478;-84
2022/10/04 03:08:20;;;;;;;;;;;;;;;10.95;100.00;98380.57;1714506;82;24754;-84
2022/10/04 03:10:46;;;;;;;;;;;;;;;10.93;100.00;98375.44;1718260;82;21938;-84
2022/10/04 03:13:13;;;;;;;;;;;;;;;10.95;100.00;98381.41;1721262;82;25983;-84
2022/10/04 03:15:39;;;;;;;;;;;;;;;10.95;100.00;98379.27;1716341;82;24393;-83
2022/10/04 03:18:05;;;;;;;;;;;;;;;10.93;100.00;98377.22;1715437;82;20193;-83
2022/10/04 03:20:33;;;;;;;;;;;;;;;10.91;100.00;98374.70;1721460;82;20694;-84
2022/10/04 03:23:00;;;;;;;;;;;;;;;10.91;100.00;98370.77;1719959;82;21972;-83
2022/10/04 03:25:36;;;;;;;;;;;;;;;10.93;100.00;98370.67;1712652;82;25985;-84
2022/10/04 03:28:00;;;;;;;;;;;;;;;10.94;100.00;98376.27;1718666;82;24633;-84
2022/10/04 03:30:27;;;;;;;;;;;;;;;10.90;100.00;98362.58;1720262;82;21351;-83
2022/10/04 03:32:53;;;;;;;;;;;;;;;10.88;100.00;98365.30;1720092;82;24806;-84
2022/10/04 03:35:20;;;;;;;;;;;;;;;10.87;100.00;98375.41;1724546;82;22036;-83
2022/10/04 03:37:50;;;;;;;;;;;;;;;10.88;100.00;98380.17;1725168;82;26983;-84
2022/10/04 03:40:17;;;;;;;;;;;;;;;10.88;100.00;98381.48;1716129;82;24396;-84
2022/10/04 03:42:46;;;;;;;;;;;;;;;10.89;100.00;98385.77;1714639;82;20250;-84
2022/10/04 03:45:15;;;;;;;;;;;;;;;10.89;100.00;98381.84;1718172;82;25307;-84
2022/10/04 03:47:47;;;;;;;;;;;;;;;10.89;100.00;98388.39;1723526;82;21980;-84
2022/10/04 03:50:24;;;;;;;;;;;;;;;10.89;100.00;98387.08;1721538;82;26089;-84
2022/10/04 03:52:52;;;;;;;;;;;;;;;10.88;100.00;98388.02;1721591;82;24615;-84
2022/10/04 03:55:19;;;;;;;;;;;;;;;10.86;100.00;98379.43;1723484;82;20328;-84
2022/10/04 03:57:45;;;;;;;;;;;;;;;10.86;100.00;98378.96;1713560;80;24820;-84
2022/10/04 04:00:12;;;;;;;;;;;;;;;10.86;100.00;98384.67;1719334;82;20308;-84
2022/10/04 04:02:43;;;;;;;;;;;;;;;10.86;100.00;98393.83;1727679;82;26002;-84
2022/10/04 04:05:11;;;;;;;;;;;;;;;10.88;100.00;98391.48;1732833;81;24543;-84
2022/10/04 04:07:39;;;;;;;;;;;;;;;10.91;100.00;98397.80;1730015;81;20163;-84
2022/10/04 04:10:07;;;;;;;;;;;;;;;10.92;100.00;98393.39;1729655;81;24741;-84
2022/10/04 04:12:46;;;;;;;;;;;;;;;10.90;100.00;98394.84;1729487;81;22030;-84
2022/10/04 04:15:12;;;;;;;;;;;;;;;10.90;100.00;98397.92;1735415;81;25697;-84
2022/10/04 04:17:40;;;;;;;;;;;;;;;10.90;100.00;98394.00;1728968;81;24473;-84
2022/10/04 04:20:08;;;;;;;;;;;;;;;10.90;100.00;98396.62;1726585;81;20205;-84
2022/10/04 04:22:36;;;;;;;;;;;;;;;10.89;100.00;98395.78;1726388;81;25633;-84
2022/10/04 04:25:04;;;;;;;;;;;;;;;10.90;100.00;98397.92;1728480;81;22137;-84
2022/10/04 04:27:32;;;;;;;;;;;;;;;10.89;100.00;98402.32;1729769;81;26967;-84
2022/10/04 04:30:00;;;;;;;;;;;;;;;10.87;100.00;98404.67;1731359;81;24381;-83
2022/10/04 04:32:35;;;;;;;;;;;;;;;10.87;100.00;98399.44;1730792;81;20216;-84
2022/10/04 04:35:07;;;;;;;;;;;;;;;10.86;100.00;98401.22;1727409;81;25378;-84
2022/10/04 04:37:30;;;;;;;;;;;;;;;10.86;100.00;98393.36;1730592;81;21886;-84
2022/10/04 04:39:58;;;;;;;;;;;;;;;10.85;100.00;98396.11;1731748;81;21802;-84
2022/10/04 04:42:28;;;;;;;;;;;;;;;10.83;100.00;98396.22;1724083;81;25178;-84
2022/10/04 04:44:56;;;;;;;;;;;;;;;10.79;100.00;98392.62;1731182;82;20286;-84
2022/10/04 04:47:35;;;;;;;;;;;;;;;10.78;100.00;98407.95;1728688;81;24877;-84
2022/10/04 04:50:09;;;;;;;;;;;;;;;10.79;100.00;98422.72;1729240;81;22669;-84
2022/10/04 04:52:36;;;;;;;;;;;;;;;10.79;100.00;98412.25;1730712;81;26177;-84
2022/10/04 04:55:03;;;;;;;;;;;;;;;10.80;100.00;98410.00;1723106;81;24455;-84
2022/10/04 04:57:32;;;;;;;;;;;;;;;10.80;100.00;98410.00;1733319;81;20205;-84
2022/10/04 05:00:00;;;;;;;;;;;;;;;10.80;100.00;98404.27;1729486;81;24766;-84
2022/10/04 05:02:27;;;;;;;;;;;;;;;10.82;100.00;98420.72;1716407;81;22035;-84
2022/10/04 05:05:12;;;;;;;;;;;;;;;10.85;100.00;98430.98;1722911;82;26004;-85
2022/10/04 05:07:38;;;;;;;;;;;;;;;10.88;100.00;98431.22;1716917;83;25406;-84
2022/10/04 05:10:06;;;;;;;;;;;;;;;10.91;100.00;98431.83;1714919;82;20162;-84
2022/10/04 05:12:32;;;;;;;;;;;;;;;10.91;100.00;98431.83;1721383;82;25551;-84
2022/10/04 05:14:58;;;;;;;;;;;;;;;10.94;100.00;98438.64;1721364;82;22025;-84
2022/10/04 05:17:26;;;;;;;;;;;;;;;10.94;100.00;98438.64;1719107;81;21141;-85
2022/10/04 05:19:58;;;;;;;;;;;;;;;10.96;100.00;98432.00;1705199;83;21015;-85
2022/10/04 05:22:26;;;;;;;;;;;;;;;10.99;100.00;98422.13;1720144;82;20659;-84
2022/10/04 05:24:57;;;;;;;;;;;;;;;11.03;100.00;98434.05;1719011;82;24780;-84
2022/10/04 05:27:32;;;;;;;;;;;;;;;11.06;100.00;98447.41;1716974;81;21997;-84
2022/10/04 05:30:03;;;;;;;;;;;;;;;11.10;100.00;98448.39;1719153;82;25968;-84
2022/10/04 05:32:43;;;;;;;;;;;;;;;11.12;100.00;98454.36;1719614;82;24645;-84
2022/10/04 05:35:14;;;;;;;;;;;;;;;11.15;100.00;98453.29;1719207;82;20174;-83
2022/10/04 05:37:42;;;;;;;;;;;;;;;11.17;100.00;98462.73;1687783;83;24756;-84
2022/10/04 05:40:14;;;;;;;;;;;;;;;11.21;100.00;98472.03;1715509;82;20146;-84
2022/10/04 05:42:44;;;;;;;;;;;;;;;11.21;100.00;98477.73;1719372;82;26020;-84
2022/10/04 05:45:18;;;;;;;;;;;;;;;11.24;100.00;98473.58;1716199;82;24414;-84
2022/10/04 05:47:46;;;;;;;;;;;;;;;11.27;100.00;98471.59;1715684;82;20248;-84
2022/10/04 05:50:19;;;;;;;;;;;;;;;11.27;100.00;98472.91;1713611;82;25409;-84
2022/10/04 05:52:47;;;;;;;;;;;;;;;11.30;100.00;98470.52;1719958;82;22776;-84
2022/10/04 05:55:30;;;;;;;;;;;;;;;11.33;100.00;98478.17;1723401;82;26848;-84
2022/10/04 05:57:58;;;;;;;;;;;;;;;11.34;100.00;98478.55;1721018;82;23885;-84
2022/10/04 06:00:26;;;;;;;;;;;;;;;11.37;100.00;98478.78;1724628;82;20282;-84
2022/10/04 06:02:59;;;;;;;;;;;;;;;11.38;100.00;98484.39;1724542;82;24748;-84
2022/10/04 06:05:28;;;;;;;;;;;;;;;11.37;100.00;98482.70;1733553;81;22126;-85
2022/10/04 06:07:56;;;;;;;;;;;;;;;11.36;100.00;98488.42;1730120;81;26097;-84
2022/10/04 06:10:30;;;;;;;;;;;;;;;11.37;100.00;98485.33;1729459;81;20463;-84
2022/10/04 06:13:00;;;;;;;;;;;;;;;11.40;100.00;98487.74;1728679;81;20209;-84
2022/10/04 06:15:40;;;;;;;;;;;;;;;11.42;100.00;98491.91;1733041;81;24730;-84
2022/10/04 06:18:08;;;;;;;;;;;;;;;11.47;100.00;98487.64;1726563;81;21985;-84
2022/10/04 06:20:38;;;;;;;;;;;;;;;11.49;100.00;98501.48;1730087;81;25998;-84
2022/10/04 06:23:06;;;;;;;;;;;;;;;11.53;100.00;98502.45;1730110;81;24431;-85
2022/10/04 06:25:39;;;;;;;;;;;;;;;11.59;100.00;98502.48;1729232;81;20314;-84
2022/10/04 06:28:10;;;;;;;;;;;;;;;11.62;100.00;98504.39;1727908;81;24772;-84
2022/10/04 06:30:52;;;;;;;;;;;;;;;11.66;100.00;98510.27;1726619;82;22911;-85
2022/10/04 06:33:20;;;;;;;;;;;;;;;11.68;100.00;98510.98;1727295;81;25490;-84
2022/10/04 06:35:48;;;;;;;;;;;;;;;11.78;100.00;98516.44;1731606;81;24471;-84
2022/10/04 06:38:25;;;;;;;;;;;;;;;11.81;100.00;98516.20;1729263;81;20255;-84
2022/10/04 06:40:58;;;;;;;;;;;;;;;11.84;100.00;98516.80;1728697;81;24745;-84
2022/10/04 06:43:25;;;;;;;;;;;;;;;11.86;100.00;98521.94;1730623;81;23173;-84
2022/10/04 06:46:02;;;;;;;;;;;;;;;11.90;100.00;98521.59;1731882;81;26032;-85
2022/10/04 06:48:47;;;;;;;;;;;;;;;11.90;100.00;98531.25;1695204;81;24634;-85
2022/10/04 06:51:15;;;;;;;;;;;;;;;11.92;100.00;98528.05;1730864;82;20253;-85
2022/10/04 06:53:43;;;;;;;;;;;;;;;11.91;100.00;98535.55;1725706;81;24828;-85
2022/10/04 06:56:13;;;;;;;;;;;;;;;11.89;100.00;98530.91;1685495;82;22095;-85
2022/10/04 06:58:40;;;;;;;;;;;;;;;11.92;100.00;98527.58;1731840;81;25968;-85
2022/10/04 07:01:25;;;;;;;;;;;;;;;12.05;100.00;98536.22;1734929;81;24476;-85
2022/10/04 07:03:52;;;;;;;;;;;;;;;12.19;100.00;98535.66;1730380;81;20204;-85
2022/10/04 07:06:25;;;;;;;;;;;;;;;12.22;100.00;98536.25;1699437;82;20245;-85
2022/10/04 07:08:54;;;;;;;;;;;;;;;12.21;100.00;98542.95;1730911;81;23060;-85
2022/10/04 07:11:24;;;;;;;;;;;;;;;12.22;100.00;98544.63;1729105;81;26744;-85
2022/10/04 07:13:58;;;;;;;;;;;;;;;12.24;100.00;98547.95;1731705;81;24499;-85
2022/10/04 07:16:26;;;;;;;;;;;;;;;12.26;100.00;98553.94;1719670;81;20472;-84
2022/10/04 07:19:02;;;;;;;;;;;;;;;12.27;100.00;98552.98;1705619;82;20461;-84
2022/10/04 07:21:30;;;;;;;;;;;;;;;12.25;100.00;98555.72;1733498;81;21897;-84
2022/10/04 07:24:02;;;;;;;;;;;;;;;12.21;100.00;98557.38;1730885;81;25982;-84
2022/10/04 07:26:48;;;;;;;;;;;;;;;12.09;100.00;98548.62;1730489;81;25204;-85
2022/10/04 07:29:23;;;;;;;;;;;;;;;12.01;100.00;98554.42;1729226;81;20183;-84
2022/10/04 07:32:07;;;;;;;;;;;;;;;11.98;100.00;98555.98;1730235;82;25563;-84
2022/10/04 07:34:36;;;;;;;;;;;;;;;11.99;100.00;98556.81;1726759;81;22936;-84
2022/10/04 07:37:07;;;;;;;;;;;;;;;12.04;100.00;98555.53;1730077;81;26737;-85
2022/10/04 07:39:40;;;;;;;;;;;;;;;12.05;100.00;98564.23;1702503;81;20364;-84
2022/10/04 07:42:16;;;;;;;;;;;;;;;11.99;100.00;98564.22;1732283;81;20299;-84
2022/10/04 07:44:44;;;;;;;;;;;;;;;12.04;100.00;98567.80;1734025;81;25465;-84
2022/10/04 07:47:20;;;;;;;;;;;;;;;12.05;100.00;98579.50;1732186;82;22575;-84
2022/10/04 07:49:49;;;;;;;;;;;;;;;12.06;100.00;98573.76;1730125;81;25954;-84
2022/10/04 07:52:29;;;;;;;;;;;;;;;12.04;100.00;98573.89;1731506;81;24503;-84
2022/10/04 07:55:01;;;;;;;;;;;;;;;12.04;100.00;98576.98;1725889;81;20249;-84
2022/10/04 07:57:29;;;;;;;;;;;;;;;12.04;100.00;98576.52;1700837;82;25026;-84
2022/10/04 08:00:04;;;;;;;;;;;;;;;12.06;100.00;98573.76;1728780;81;22224;-85
2022/10/04 08:02:32;;;;;;;;;;;;;;;12.16;100.00;98583.96;1714875;82;27093;-85
2022/10/04 08:05:20;;;;;;;;;;;;;;;12.16;100.00;98585.27;1702418;83;24639;-85
2022/10/04 08:07:48;;;;;;;;;;;;;;;12.12;100.00;98592.98;1707117;83;20468;-84
2022/10/04 08:10:19;;;;;;;;;;;;;;;12.09;100.00;98598.00;1705195;83;25593;-85
2022/10/04 08:12:53;;;;;;;;;;;;;;;12.06;100.00;98598.20;1709262;83;21963;-85
2022/10/04 08:15:29;;;;;;;;;;;;;;;12.11;100.00;98588.68;1704620;83;26626;-84
2022/10/04 08:18:00;;;;;;;;;;;;;;;12.16;100.00;98588.70;1706609;83;25416;-84
2022/10/04 08:20:34;;;;;;;;;;;;;;;12.25;100.00;98591.61;1709434;83;20234;-84
2022/10/04 08:23:02;;;;;;;;;;;;;;;12.27;100.00;98591.87;1704123;83;25488;-85
2022/10/04 08:25:31;;;;;;;;;;;;;;;12.33;100.00;98591.39;1704804;81;22009;-84
2022/10/04 08:30:56;;;;;;;;;;;;;;;12.48;100.00;98594.20;1642956;87;24448;-85
2022/10/04 08:33:28;;;;;;;;;;;;;;;12.48;100.00;98596.83;1641167;85;20580;-84
2022/10/04 08:35:57;;;;;;;;;;;;;;;12.49;100.00;98605.55;1669994;83;24297;-84
2022/10/04 08:38:34;;;;;;;;;;;;;;;12.60;100.00;98602.12;1710636;83;22085;-85
2022/10/04 08:41:04;;;;;;;;;;;;;;;12.67;100.00;98605.93;1708313;82;25978;-84
2022/10/04 08:43:43;;;;;;;;;;;;;;;12.71;100.00;98604.27;1706675;83;25497;-85
2022/10/04 08:46:26;;;;;;;;;;;;;;;12.75;100.00;98613.61;1709026;83;20239;-84
2022/10/04 08:49:09;;;;;;;;;;;;;;;12.80;100.00;98612.78;1700534;82;25522;-85
2022/10/04 08:51:54;;;;;;;;;;;;;;;12.91;100.00;98611.48;1708320;83;22090;-85
2022/10/04 08:54:39;;;;;;;;;;;;;;;13.05;100.00;98606.95;1711616;83;26059;-84
2022/10/04 08:57:14;;;;;;;;;;;;;;;13.19;100.00;98612.02;1687942;83;24312;-85
2022/10/04 09:00:00;;;;;;;;;;;;;;;13.23;100.00;98611.66;1706520;83;20521;-85
2022/10/04 09:02:37;;;;;;;;;;;;;;;13.27;100.00;98609.62;1702032;82;24820;-85
2022/10/04 09:05:20;;;;;;;;;;;;;;;13.34;100.00;98609.03;1705557;83;22098;-84
2022/10/04 09:08:04;;;;;;;;;;;;;;;13.28;100.00;98613.45;1712298;83;26883;-84
2022/10/04 09:10:49;;;;;;;;;;;;;;;13.24;100.00;98614.66;1707315;83;24656;-85
2022/10/04 09:13:23;;;;;;;;;;;;;;;13.28;100.00;98619.18;1701932;83;20379;-83
2022/10/04 09:15:50;;;;;;;;;;;;;;;13.28;100.00;98619.18;1691928;84;24834;-83
2022/10/04 09:18:21;;;;;;;;;;;;;;;13.30;100.00;98621.22;1703022;82;22089;-83
2022/10/04 09:20:49;;;;;;;;;;;;;;;13.38;100.00;98619.66;1704967;83;26060;-83
2022/10/04 09:23:22;;;;;;;;;;;;;;;13.46;100.00;98624.33;1710086;82;24642;-83
2022/10/04 09:26:09;;;;;;;;;;;;;;;13.61;100.00;98621.80;1708320;83;20197;-83
2022/10/04 09:28:45;;;;;;;;;;;;;;;13.75;100.00;98622.84;1706853;83;24778;-83
2022/10/04 09:31:26;;;;;;;;;;;;;;;13.74;100.00;98628.24;1710252;83;22695;-85
2022/10/04 09:33:54;;;;;;;;;;;;;;;13.70;100.00;98624.16;1706807;82;26176;-85
2022/10/04 09:36:22;;;;;;;;;;;;;;;13.68;100.00;98627.41;1700711;83;24603;-85
2022/10/04 09:39:07;;;;;;;;;;;;;;;13.58;100.00;98631.22;1702208;83;20226;-86
2022/10/04 09:41:53;;;;;;;;;;;;;;;13.54;100.00;98639.00;1709750;82;24837;-85
2022/10/04 09:44:20;;;;;;;;;;;;;;;13.53;100.00;98637.33;1702526;83;22017;-84
2022/10/04 09:46:51;;;;;;;;;;;;;;;13.52;100.00;98630.42;1711240;82;25990;-84
2022/10/04 09:49:36;;;;;;;;;;;;;;;13.51;100.00;98636.63;1705929;83;24400;-84
2022/10/04 09:52:19;;;;;;;;;;;;;;;13.57;100.00;98630.89;1705344;81;20302;-84
2022/10/04 09:55:04;;;;;;;;;;;;;;;13.72;100.00;98632.30;1704007;83;24317;-84
2022/10/04 09:57:32;;;;;;;;;;;;;;;13.85;100.00;98630.86;1711187;83;22128;-84
2022/10/04 10:00:09;;;;;;;;;;;;;;;13.97;100.00;98633.80;1703412;83;25944;-84
2022/10/04 10:02:43;;;;;;;;;;;;;;;14.08;100.00;98636.39;1712763;82;24616;-85
2022/10/04 10:05:15;;;;;;;;;;;;;;;14.08;100.00;98638.19;1727889;81;20240;-85
2022/10/04 10:07:46;;;;;;;;;;;;;;;14.14;100.00;98639.02;1729442;81;24799;-84
2022/10/04 10:13:41;;;;;;;;;;;;;;;14.29;100.00;98643.05;1731159;81;26075;-84
2022/10/04 10:16:08;;;;;;;;;;;;;;;14.23;100.00;98659.34;1732027;82;24558;-84
2022/10/04 10:18:42;;;;;;;;;;;;;;;14.17;100.00;98659.36;1736523;81;20250;-84
2022/10/04 10:21:16;;;;;;;;;;;;;;;14.17;100.00;98652.78;1728450;82;24840;-84
2022/10/04 10:23:44;;;;;;;;;;;;;;;14.25;100.00;98654.77;1730739;81;22250;-85
2022/10/04 10:26:28;;;;;;;;;;;;;;;14.34;100.00;98659.31;1728549;82;26142;-84
2022/10/04 10:29:13;;;;;;;;;;;;;;;14.34;100.00;98664.58;1727263;81;24508;-84
2022/10/04 10:31:43;;;;;;;;;;;;;;;14.29;100.00;98660.17;1727796;81;20241;-84
2022/10/04 10:34:30;;;;;;;;;;;;;;;14.28;100.00;98662.44;1724317;81;24777;-84
2022/10/04 10:36:59;;;;;;;;;;;;;;;14.22;100.00;98669.03;1732429;82;22087;-85
2022/10/04 10:39:42;;;;;;;;;;;;;;;14.15;100.00;98674.91;1726978;81;26279;-84
2022/10/04 10:42:16;;;;;;;;;;;;;;;14.08;100.00;98674.56;1731312;81;24404;-84
2022/10/04 10:44:50;;;;;;;;;;;;;;;14.13;100.00;98681.60;1730936;81;20565;-84
2022/10/04 10:47:28;;;;;;;;;;;;;;;14.21;100.00;98673.94;1735187;81;24763;-84
2022/10/04 10:49:56;;;;;;;;;;;;;;;14.33;100.00;98675.22;1719676;81;22910;-85
2022/10/04 10:52:24;;;;;;;;;;;;;;;14.48;100.00;98676.16;1730275;81;25960;-85
2022/10/04 10:55:09;;;;;;;;;;;;;;;14.57;100.00;98675.39;1725894;81;25291;-85
2022/10/04 10:57:48;;;;;;;;;;;;;;;14.60;100.00;98674.31;1732630;81;20477;-84
2022/10/04 11:00:22;;;;;;;;;;;;;;;14.56;100.00;98679.48;1727118;81;24765;-84
2022/10/04 11:02:56;;;;;;;;;;;;;;;14.48;100.00;98680.58;1727067;81;22153;-85
2022/10/04 11:05:39;;;;;;;;;;;;;;;14.41;100.00;98680.72;1728915;81;26355;-84
2022/10/04 11:08:16;;;;;;;;;;;;;;;14.30;100.00;98686.83;1731517;81;24290;-84
2022/10/04 11:10:53;;;;;;;;;;;;;;;14.17;100.00;98674.31;1728168;81;20275;-85
2022/10/04 11:13:24;;;;;;;;;;;;;;;14.30;100.00;98686.83;1730685;81;24745;-85
2022/10/04 11:15:53;;;;;;;;;;;;;;;14.42;100.00;98683.71;1726842;81;21443;-85
2022/10/04 11:18:39;;;;;;;;;;;;;;;14.46;100.00;98678.55;1731211;81;26099;-85
2022/10/04 11:21:10;;;;;;;;;;;;;;;14.44;100.00;98689.23;1728464;81;24405;-84
2022/10/04 11:23:41;;;;;;;;;;;;;;;14.21;100.00;98694.16;1728078;81;20497;-85
2022/10/04 11:26:09;;;;;;;;;;;;;;;14.15;100.00;98697.28;1733752;81;24742;-84
2022/10/04 11:28:56;;;;;;;;;;;;;;;14.13;100.00;98696.08;1732462;81;21998;-85
2022/10/04 11:31:31;;;;;;;;;;;;;;;14.23;100.00;98696.20;1727470;81;26070;-84
2022/10/04 11:34:01;;;;;;;;;;;;;;;14.31;100.00;98691.14;1730210;81;24404;-84
2022/10/04 11:36:32;;;;;;;;;;;;;;;14.41;100.00;98692.09;1712396;81;20587;-84
2022/10/04 11:39:01;;;;;;;;;;;;;;;14.50;100.00;98695.31;1735740;81;24800;-84
2022/10/04 11:41:29;;;;;;;;;;;;;;;14.63;100.00;98688.05;1727960;81;21993;-84
2022/10/04 11:44:14;;;;;;;;;;;;;;;14.72;100.00;98694.86;1725018;81;26263;-85
2022/10/04 11:46:59;;;;;;;;;;;;;;;14.79;100.00;98691.58;1732660;81;24401;-85
2022/10/04 11:49:44;;;;;;;;;;;;;;;14.83;100.00;98689.06;1730548;81;20715;-85
2022/10/04 11:52:18;;;;;;;;;;;;;;;15.01;100.00;98689.30;1730745;80;20172;-84
2022/10/04 11:55:03;;;;;;;;;;;;;;;15.07;100.00;98683.52;1730497;81;22969;-84
2022/10/04 11:57:39;;;;;;;;;;;;;;;15.04;100.00;98691.70;1725329;81;26060;-84
2022/10/04 12:00:16;;;;;;;;;;;;;;;15.03;100.00;98683.44;1730997;81;24546;-85
2022/10/04 12:02:44;;;;;;;;;;;;;;;15.07;100.00;98688.80;1722054;80;20474;-85
2022/10/04 12:05:22;;;;;;;;;;;;;;;15.10;100.00;98679.81;1719888;82;24740;-84
2022/10/04 12:08:06;;;;;;;;;;;;;;;15.13;100.00;98679.53;1718777;83;21967;-85
2022/10/04 12:10:37;;;;;;;;;;;;;;;15.20;100.00;98674.10;1715022;82;26801;-84
2022/10/04 12:13:20;;;;;;;;;;;;;;;15.29;100.00;98678.59;1715640;82;24401;-84
2022/10/04 12:16:03;;;;;;;;;;;;;;;15.27;100.00;98672.63;1715685;82;20575;-85
2022/10/04 12:18:47;;;;;;;;;;;;;;;15.23;100.00;98669.39;1718744;82;25032;-84
2022/10/04 12:21:15;;;;;;;;;;;;;;;15.30;100.00;98661.80;1717543;82;21983;-84
2022/10/04 12:23:57;;;;;;;;;;;;;;;15.40;100.00;98667.95;1705702;82;26224;-85
2022/10/04 12:26:31;;;;;;;;;;;;;;;15.44;100.00;98666.23;1720547;82;24401;-85
2022/10/04 12:29:12;;;;;;;;;;;;;;;15.52;100.00;98666.94;1716935;82;20261;-85
2022/10/04 12:31:43;;;;;;;;;;;;;;;15.57;100.00;98668.70;1723923;82;24870;-84
2022/10/04 12:34:13;;;;;;;;;;;;;;;15.62;100.00;98670.45;1718438;82;22484;-85
2022/10/04 12:36:49;;;;;;;;;;;;;;;15.72;100.00;98673.12;1726021;82;25979;-85
2022/10/04 12:39:33;;;;;;;;;;;;;;;15.77;100.00;98669.11;1718236;82;24518;-85
2022/10/04 12:42:07;;;;;;;;;;;;;;;15.77;100.00;98662.99;1722106;82;20220;-84
2022/10/04 12:44:52;;;;;;;;;;;;;;;15.79;100.00;98680.86;1724367;82;25461;-85
2022/10/04 12:47:19;;;;;;;;;;;;;;;15.80;100.00;98678.58;1720673;83;22088;-84
2022/10/04 12:50:00;;;;;;;;;;;;;;;15.80;100.00;98679.42;1724770;83;21361;-84
2022/10/04 12:52:28;;;;;;;;;;;;;;;15.75;100.00;98685.58;1714094;82;24665;-84
2022/10/04 12:55:00;;;;;;;;;;;;;;;15.74;100.00;98684.39;1717548;82;20319;-84
2022/10/04 12:57:28;;;;;;;;;;;;;;;15.77;100.00;98686.27;1715179;82;24741;-85
2022/10/04 12:59:55;;;;;;;;;;;;;;;15.74;100.00;98689.18;1719887;83;21903;-84
2022/10/04 13:02:39;;;;;;;;;;;;;;;15.76;100.00;98689.06;1711946;82;26894;-84
2022/10/04 13:05:23;;;;;;;;;;;;;;;15.72;100.00;98698.19;1712495;82;24405;-85
2022/10/04 13:07:51;;;;;;;;;;;;;;;15.57;100.00;98685.84;1712539;82;20387;-84
2022/10/04 13:10:19;;;;;;;;;;;;;;;15.52;100.00;98693.80;1712204;82;24945;-84